Time;durP1;ratioP1;P1;durP2;ratioP2;P2;SDS_P1;SDS_P2;PMS_P1;PMS_P2;Temp;Humidity;BMP_temperature;BMP_pressure;BME280_temperature;BME280_humidity;BME280_pressure;Samples;Min_cycle;Max_cycle;Signal;HPM_P1;HPM_P2
2022/01/11 00:02:39;;;;;;;1.90;0.77;;;;;;;12.46;100.00;100416.50;4934976;29;20414;-87
2022/01/11 00:08:50;;;;;;;2.05;1.55;;;;;;;12.55;100.00;100418.47;4956067;28;20058;-85
2022/01/11 00:11:54;;;;;;;6.05;1.02;;;;;;;12.49;100.00;100415.56;4945575;29;20050;-87
2022/01/11 00:14:57;;;;;;;1.75;1.08;;;;;;;12.48;100.00;100425.19;4953850;29;20500;-86
2022/01/11 00:18:01;;;;;;;0.98;0.88;;;;;;;12.46;100.00;100426.91;4943419;29;20047;-86
2022/01/11 00:21:04;;;;;;;2.92;1.40;;;;;;;12.52;100.00;100430.59;4942847;29;20062;-86
2022/01/11 00:27:30;;;;;;;4.53;0.40;;;;;;;12.56;100.00;100437.56;4941712;29;20066;-85
2022/01/11 00:30:36;;;;;;;5.03;1.67;;;;;;;12.55;100.00;100440.81;4954633;28;20058;-86
2022/01/11 00:33:44;;;;;;;4.53;1.30;;;;;;;12.59;100.00;100438.63;4941814;29;20043;-85
2022/01/11 00:36:48;;;;;;;3.35;0.90;;;;;;;12.63;100.00;100440.00;4955104;29;20055;-85
2022/01/11 00:39:52;;;;;;;7.57;1.80;;;;;;;12.61;100.00;100448.09;4947669;28;20173;-86
2022/01/11 00:42:59;;;;;;;3.35;1.08;;;;;;;12.62;100.00;100446.84;4953870;29;20058;-86
2022/01/11 00:46:04;;;;;;;3.85;0.95;;;;;;;12.60;100.00;100442.97;4936079;29;20498;-87
2022/01/11 00:49:07;;;;;;;1.85;0.80;;;;;;;12.57;100.00;100453.09;4941578;28;20078;-86
2022/01/11 00:52:11;;;;;;;1.88;0.35;;;;;;;12.64;100.00;100454.75;4942551;29;20050;-86
2022/01/11 00:55:15;;;;;;;5.47;0.77;;;;;;;12.67;100.00;100456.56;4940010;29;20078;-85
2022/01/11 00:58:20;;;;;;;1.55;0.43;;;;;;;12.68;100.00;100460.94;4946214;28;20054;-85
2022/01/11 01:01:23;;;;;;;2.63;0.88;;;;;;;12.65;100.00;100459.06;4942744;29;20066;-86
2022/01/11 01:04:27;;;;;;;2.70;1.52;;;;;;;12.63;100.00;100447.59;4942595;29;20074;-86
2022/01/11 01:07:30;;;;;;;4.32;1.33;;;;;;;12.60;100.00;100459.75;4950749;29;20050;-86
2022/01/11 01:10:39;;;;;;;11.65;1.05;;;;;;;12.60;100.00;100454.94;4953229;28;20054;-86
2022/01/11 01:13:43;;;;;;;4.50;0.68;;;;;;;12.69;100.00;100468.09;4953714;29;20055;-86
2022/01/11 01:16:46;;;;;;;3.17;0.75;;;;;;;12.62;100.00;100474.00;4954501;29;20050;-85
2022/01/11 01:19:49;;;;;;;2.25;0.95;;;;;;;12.70;100.00;100464.03;4933698;29;20062;-86
2022/01/11 01:22:53;;;;;;;4.90;1.85;;;;;;;12.72;100.00;100467.09;4942800;29;20127;-86
2022/01/11 01:25:57;;;;;;;3.38;1.67;;;;;;;12.76;100.00;100473.28;4956049;29;20070;-86
2022/01/11 01:29:01;;;;;;;2.33;0.73;;;;;;;12.77;100.00;100483.25;4956966;28;20062;-85
2022/01/11 01:32:04;;;;;;;1.40;0.95;;;;;;;12.81;100.00;100492.22;4945618;29;20058;-86
2022/01/11 01:35:09;;;;;;;3.45;1.55;;;;;;;12.72;100.00;100495.06;4956827;29;20054;-85
2022/01/11 01:38:12;;;;;;;4.38;1.10;;;;;;;12.76;100.00;100487.28;4945542;29;20058;-85
2022/01/11 01:41:18;;;;;;;8.50;1.05;;;;;;;12.73;100.00;100485.44;4957382;29;20510;-85
2022/01/11 01:44:22;;;;;;;6.13;1.10;;;;;;;12.68;100.00;100489.66;4957443;29;20058;-85
2022/01/11 01:47:26;;;;;;;1.85;1.27;;;;;;;12.75;100.00;100499.72;4939684;29;20054;-85
2022/01/11 01:50:30;;;;;;;4.28;1.25;;;;;;;12.77;100.00;100502.81;4944712;28;20055;-85
2022/01/11 01:53:36;;;;;;;3.30;1.00;;;;;;;12.75;100.00;100497.69;4955088;29;20054;-84
2022/01/11 01:56:40;;;;;;;6.65;1.77;;;;;;;12.78;100.00;100498.75;4956065;29;20070;-84
2022/01/11 01:59:43;;;;;;;9.73;0.57;;;;;;;12.72;100.00;100503.44;4955771;28;20054;-83
2022/01/11 02:02:47;;;;;;;5.88;1.48;;;;;;;12.76;100.00;100523.59;4955117;29;20058;-84
2022/01/11 02:05:50;;;;;;;4.40;0.75;;;;;;;12.76;100.00;100520.81;4935467;29;20051;-83
2022/01/11 02:08:53;;;;;;;1.90;1.33;;;;;;;12.76;100.00;100527.19;4947767;28;20513;-83
2022/01/11 02:11:57;;;;;;;1.80;0.82;;;;;;;12.77;100.00;100525.94;4939330;29;20050;-82
2022/01/11 02:15:01;;;;;;;2.40;0.98;;;;;;;12.73;100.00;100530.16;4954480;29;20054;-82
2022/01/11 02:18:12;;;;;;;5.55;1.20;;;;;;;12.65;100.00;100534.53;4943384;29;20046;-81
2022/01/11 02:21:16;;;;;;;1.02;0.28;;;;;;;12.65;100.00;100540.13;4937929;29;20058;-82
2022/01/11 02:24:20;;;;;;;7.93;1.90;;;;;;;12.67;100.00;100548.78;4954713;29;20046;-81
2022/01/11 02:27:23;;;;;;;3.47;0.63;;;;;;;12.59;100.00;100547.59;4954846;29;20652;-81
2022/01/11 02:30:31;;;;;;;5.72;0.75;;;;;;;12.56;100.00;100554.16;4952607;28;20070;-81
2022/01/11 02:33:38;;;;;;;2.95;0.98;;;;;;;12.59;100.00;100558.78;4942946;29;20054;-81
2022/01/11 02:36:41;;;;;;;2.67;1.02;;;;;;;12.56;100.00;100556.94;4941663;29;20055;-82
2022/01/11 02:39:46;;;;;;;2.15;0.45;;;;;;;12.68;100.00;100555.94;4955485;28;20413;-83
2022/01/11 02:42:49;;;;;;;0.30;0.28;;;;;;;12.67;100.00;100562.75;4955025;29;20074;-83
2022/01/11 02:45:54;;;;;;;2.38;0.65;;;;;;;12.73;100.00;100549.72;4956132;29;20058;-87
2022/01/11 02:48:57;;;;;;;0.85;0.60;;;;;;;12.75;100.00;100558.41;4955969;28;20414;-83
2022/01/11 02:52:01;;;;;;;1.27;0.65;;;;;;;12.72;100.00;100565.72;4944198;29;20066;-86
2022/01/11 02:55:10;;;;;;;1.27;0.88;;;;;;;12.67;100.00;100565.56;4955017;29;20058;-85
2022/01/11 02:58:14;;;;;;;2.60;0.85;;;;;;;12.73;100.00;100572.06;4944137;29;20066;-85
2022/01/11 03:01:18;;;;;;;0.73;0.57;;;;;;;12.74;100.00;100577.19;4936997;29;20046;-85
2022/01/11 03:04:24;;;;;;;0.85;0.43;;;;;;;12.78;100.00;100577.00;4948468;29;20074;-85
2022/01/11 03:07:27;;;;;;;6.75;1.33;;;;;;;12.76;100.00;100585.09;4938509;29;20071;-85
2022/01/11 03:10:33;;;;;;;1.58;0.38;;;;;;;12.76;100.00;100583.06;4953889;28;20078;-85
2022/01/11 03:13:39;;;;;;;1.67;0.40;;;;;;;12.73;100.00;100583.25;4954369;29;20046;-87
2022/01/11 03:16:43;;;;;;;0.82;0.20;;;;;;;12.78;100.00;100590.97;4955218;29;20058;-85
2022/01/11 03:19:47;;;;;;;0.55;0.40;;;;;;;12.77;100.00;100592.25;4930370;28;20078;-85
2022/01/11 03:22:51;;;;;;;0.77;0.50;;;;;;;12.73;100.00;100597.97;4939874;29;20074;-85
2022/01/11 03:25:55;;;;;;;1.35;0.43;;;;;;;12.68;100.00;100600.66;4955362;29;20136;-85
2022/01/11 03:28:58;;;;;;;2.05;0.68;;;;;;;12.64;100.00;100600.84;4955146;28;20058;-88
2022/01/11 03:32:01;;;;;;;0.45;0.28;;;;;;;12.64;100.00;100611.25;4943622;29;20054;-89
2022/01/11 03:35:06;;;;;;;0.75;0.40;;;;;;;12.58;100.00;100618.72;4955420;29;20055;-88
2022/01/11 03:38:12;;;;;;;6.63;1.27;;;;;;;12.54;100.00;100618.88;4947132;29;20050;-90
2022/01/11 03:41:15;;;;;;;1.02;0.30;;;;;;;12.53;100.00;100633.31;4941805;29;20054;-86
2022/01/11 03:44:19;;;;;;;1.05;0.95;;;;;;;12.56;100.00;100637.97;4943369;29;20406;-86
2022/01/11 03:47:23;;;;;;;1.58;0.75;;;;;;;12.50;100.00;100639.81;4952864;28;20074;-87
2022/01/11 03:50:30;;;;;;;4.78;0.52;;;;;;;12.50;100.00;100637.81;4955726;28;20127;-86
2022/01/11 03:53:44;;;;;;;5.57;0.45;;;;;;;12.53;100.00;100645.28;4943447;29;20050;-87
2022/01/11 03:56:47;;;;;;;1.58;0.75;;;;;;;12.55;100.00;100647.59;4954443;29;20438;-87
2022/01/11 03:59:51;;;;;;;0.75;0.50;;;;;;;12.51;100.00;100658.16;4929065;29;20054;-86
2022/01/11 04:02:54;;;;;;;4.03;0.25;;;;;;;12.61;100.00;100656.88;4937995;29;20058;-87
2022/01/11 04:05:58;;;;;;;1.00;0.10;;;;;;;12.59;100.00;100657.34;4955125;29;20054;-88
2022/01/11 04:09:04;;;;;;;2.47;0.77;;;;;;;12.51;100.00;100663.75;4955231;28;20055;-88
2022/01/11 04:12:07;;;;;;;1.88;0.28;;;;;;;12.45;100.00;100660.03;4954457;29;20433;-86
2022/01/11 04:15:11;;;;;;;0.88;0.25;;;;;;;12.31;100.00;100667.03;4955185;29;20059;-87
2022/01/11 04:18:15;;;;;;;0.10;0.00;;;;;;;12.31;100.00;100666.25;4942656;29;20054;-87
2022/01/11 04:21:18;;;;;;;0.20;0.20;;;;;;;12.29;100.00;100677.13;4924142;29;20054;-87
2022/01/11 04:24:22;;;;;;;1.55;0.90;;;;;;;12.34;100.00;100682.09;4943973;29;20054;-87
2022/01/11 04:27:25;;;;;;;0.28;0.28;;;;;;;12.31;100.00;100685.81;4954270;29;20050;-86
2022/01/11 04:30:28;;;;;;;0.10;0.10;;;;;;;12.25;100.00;100685.66;4941494;29;20043;-88
2022/01/11 04:33:33;;;;;;;0.95;0.47;;;;;;;12.30;100.00;100695.44;4953873;29;20071;-85
2022/01/11 04:36:37;;;;;;;12.25;0.95;;;;;;;12.29;100.00;100705.03;4954522;29;20054;-85
2022/01/11 04:39:40;;;;;;;0.40;0.40;;;;;;;12.30;100.00;100703.81;4964226;28;20050;-86
2022/01/11 04:42:44;;;;;;;2.05;0.55;;;;;;;12.25;100.00;100712.81;4954701;29;20054;-85
2022/01/11 04:45:47;;;;;;;0.95;0.17;;;;;;;12.26;100.00;100703.22;4952925;29;20074;-88
2022/01/11 04:48:51;;;;;;;0.10;0.10;;;;;;;12.23;100.00;100713.28;4951083;28;20069;-86
2022/01/11 04:51:55;;;;;;;0.75;0.40;;;;;;;12.21;100.00;100718.56;4954566;28;20050;-87
2022/01/11 04:54:58;;;;;;;0.10;0.10;;;;;;;12.14;100.00;100714.06;4942972;29;20497;-86
2022/01/11 04:58:02;;;;;;;0.10;0.10;;;;;;;12.09;100.00;100717.47;4938500;29;20070;-86
2022/01/11 05:01:05;;;;;;;0.25;0.25;;;;;;;12.06;100.00;100715.59;4958193;29;20054;-86
2022/01/11 05:04:09;;;;;;;3.10;0.73;;;;;;;12.06;100.00;100712.81;4931726;29;20050;-86
2022/01/11 05:07:13;;;;;;;0.40;0.40;;;;;;;12.04;100.00;100712.50;4933977;29;20066;-86
2022/01/11 05:10:16;;;;;;;0.30;0.20;;;;;;;12.06;100.00;100718.38;4953877;28;20063;-86
2022/01/11 05:13:20;;;;;;;0.20;0.10;;;;;;;11.98;100.00;100722.72;4944666;29;20074;-86
2022/01/11 05:16:24;;;;;;;0.63;0.38;;;;;;;12.01;100.00;100727.41;4944792;29;20054;-87
2022/01/11 05:19:27;;;;;;;3.10;0.40;;;;;;;11.91;100.00;100741.81;4948504;29;20070;-86
2022/01/11 05:22:30;;;;;;;2.17;0.43;;;;;;;11.89;100.00;100742.25;4944538;29;20050;-87
2022/01/11 05:25:34;;;;;;;0.10;0.10;;;;;;;11.83;100.00;100746.13;4938123;29;20055;-87
2022/01/11 05:28:37;;;;;;;0.20;0.20;;;;;;;11.89;100.00;100753.41;4958589;28;20054;-86
2022/01/11 05:31:40;;;;;;;0.15;0.05;;;;;;;11.85;100.00;100757.59;4961692;28;20070;-86
2022/01/11 05:34:44;;;;;;;3.75;0.95;;;;;;;11.83;100.00;100760.84;4956961;29;20584;-86
2022/01/11 05:37:48;;;;;;;1.00;0.32;;;;;;;11.88;100.00;100765.06;4957580;29;20608;-87
2022/01/11 05:40:54;;;;;;;0.38;0.30;;;;;;;11.85;100.00;100766.75;4946820;29;20058;-86
2022/01/11 05:43:57;;;;;;;0.22;0.20;;;;;;;11.85;100.00;100775.13;4945743;29;20058;-86
2022/01/11 05:47:02;;;;;;;6.82;0.60;;;;;;;11.81;100.00;100780.09;4956760;29;20070;-86
2022/01/11 05:50:09;;;;;;;0.28;0.28;;;;;;;11.79;100.00;100787.34;4957128;28;20061;-87
2022/01/11 05:53:13;;;;;;;0.10;0.10;;;;;;;11.81;100.00;100796.81;4937868;29;20418;-85
2022/01/11 05:56:16;;;;;;;0.20;0.10;;;;;;;11.78;100.00;100797.75;4955949;29;20063;-86
2022/01/11 05:59:19;;;;;;;0.43;0.40;;;;;;;11.86;100.00;100799.03;4957334;28;20711;-86
2022/01/11 06:02:22;;;;;;;2.63;0.80;;;;;;;11.82;100.00;100798.41;4942162;29;20058;-86
2022/01/11 06:05:26;;;;;;;1.50;0.25;;;;;;;11.83;100.00;100805.50;4949343;29;20054;-86
2022/01/11 06:08:29;;;;;;;5.18;0.55;;;;;;;11.81;100.00;100819.16;4956026;28;20405;-86
2022/01/11 06:11:33;;;;;;;0.10;0.10;;;;;;;11.78;100.00;100811.69;4955717;28;20054;-86
2022/01/11 06:14:37;;;;;;;0.22;0.20;;;;;;;11.68;100.00;100809.34;4941939;29;20050;-86
2022/01/11 06:17:40;;;;;;;0.10;0.00;;;;;;;11.56;100.00;100810.97;4943374;29;20078;-86
2022/01/11 06:20:44;;;;;;;0.28;0.20;;;;;;;11.46;100.00;100809.38;4931041;29;20390;-86
2022/01/11 06:23:48;;;;;;;0.28;0.28;;;;;;;11.54;100.00;100824.63;4956665;29;20066;-86
2022/01/11 06:26:52;;;;;;;0.32;0.32;;;;;;;11.55;100.00;100823.38;4942734;29;20055;-85
2022/01/11 06:29:55;;;;;;;5.28;1.40;;;;;;;11.60;100.00;100833.16;4969671;28;20058;-82
2022/01/11 06:32:59;;;;;;;0.38;0.30;;;;;;;11.50;100.00;100826.00;4943962;29;20070;-86
2022/01/11 06:36:09;;;;;;;0.85;0.68;;;;;;;11.46;100.00;100831.69;4955491;29;20054;-86
2022/01/11 06:39:13;;;;;;;1.13;0.63;;;;;;;11.43;100.00;100827.03;4937158;29;20063;-87
2022/01/11 06:42:16;;;;;;;0.20;0.20;;;;;;;11.38;100.00;100836.00;4953746;29;20054;-90
2022/01/11 06:45:22;;;;;;;12.85;0.98;;;;;;;11.33;100.00;100839.38;4955833;29;20054;-82
2022/01/11 06:48:26;;;;;;;1.65;0.65;;;;;;;11.35;100.00;100836.91;4954891;28;20047;-84
2022/01/11 06:51:30;;;;;;;1.08;0.38;;;;;;;11.30;100.00;100857.03;4955015;29;20054;-87
2022/01/11 06:54:33;;;;;;;0.35;0.35;;;;;;;11.26;100.00;100853.59;4954610;29;20054;-83
2022/01/11 06:57:37;;;;;;;13.38;1.17;;;;;;;11.17;100.00;100853.53;4954851;29;20054;-83
2022/01/11 07:00:40;;;;;;;1.88;0.88;;;;;;;11.14;100.00;100862.81;4954412;28;20051;-83
2022/01/11 07:03:44;;;;;;;1.85;0.28;;;;;;;11.13;100.00;100862.03;4954277;29;20414;-83
2022/01/11 07:06:47;;;;;;;1.35;0.95;;;;;;;11.13;100.00;100864.81;4954708;29;20046;-82
2022/01/11 07:09:50;;;;;;;1.15;0.75;;;;;;;11.18;100.00;100883.75;4954175;28;20063;-83
2022/01/11 07:12:55;;;;;;;6.18;1.55;;;;;;;11.22;100.00;100883.59;4939678;29;20046;-85
2022/01/11 07:15:59;;;;;;;0.52;0.52;;;;;;;11.24;100.00;100892.31;4951177;29;20508;-85
2022/01/11 07:19:02;;;;;;;4.35;0.95;;;;;;;11.26;100.00;100892.66;4943073;28;20058;-85
2022/01/11 07:22:06;;;;;;;4.07;1.40;;;;;;;11.27;100.00;100897.75;4948983;28;20513;-87
2022/01/11 07:25:09;;;;;;;3.35;0.30;;;;;;;11.26;100.00;100906.59;4941349;29;20429;-85
2022/01/11 07:28:15;;;;;;;0.10;0.10;;;;;;;11.24;100.00;100912.59;4954104;29;20047;-85
2022/01/11 07:31:19;;;;;;;1.00;0.40;;;;;;;11.27;100.00;100916.50;4929882;29;20131;-84
2022/01/11 07:34:22;;;;;;;0.82;0.25;;;;;;;11.30;100.00;100923.97;4954956;29;20054;-86
2022/01/11 07:37:26;;;;;;;1.02;0.50;;;;;;;11.31;100.00;100933.88;4955207;29;20065;-88
2022/01/11 07:40:29;;;;;;;0.30;0.30;;;;;;;11.32;100.00;100944.59;4953367;28;20062;-80
2022/01/11 07:43:33;;;;;;;0.30;0.20;;;;;;;11.30;100.00;100943.47;4952609;29;20054;-81
2022/01/11 07:46:39;;;;;;;0.63;0.43;;;;;;;11.26;100.00;100959.56;4953329;29;20054;-82
2022/01/11 07:49:43;;;;;;;0.15;0.15;;;;;;;11.22;100.00;100961.69;4952951;28;20641;-82
2022/01/11 07:52:48;;;;;;;3.90;1.42;;;;;;;11.27;100.00;100964.69;4941447;29;20505;-81
2022/01/11 07:55:52;;;;;;;0.30;0.30;;;;;;;11.26;100.00;100990.25;4953878;29;20054;-83
2022/01/11 07:58:55;;;;;;;0.55;0.52;;;;;;;11.26;100.00;100990.25;4940256;28;20069;-82
2022/01/11 08:01:59;;;;;;;1.77;0.47;;;;;;;11.19;100.00;100990.47;4944330;29;20062;-84
2022/01/11 08:05:05;;;;;;;0.73;0.40;;;;;;;11.21;100.00;100988.03;4954191;29;20119;-84
2022/01/11 08:08:08;;;;;;;0.80;0.80;;;;;;;11.18;100.00;101002.84;4954432;29;20058;-85
2022/01/11 08:11:12;;;;;;;1.00;1.00;;;;;;;11.11;100.00;101011.50;4952923;29;20054;-87
2022/01/11 08:14:15;;;;;;;0.65;0.32;;;;;;;11.28;100.00;101021.22;4946296;29;20431;-86
2022/01/11 08:17:18;;;;;;;0.75;0.40;;;;;;;11.29;100.00;101018.00;4930881;29;20509;-85
2022/01/11 08:20:22;;;;;;;1.10;0.68;;;;;;;11.32;100.00;101019.09;4952652;28;20063;-79
2022/01/11 08:23:25;;;;;;;6.05;0.82;;;;;;;11.29;100.00;101033.94;4953055;29;20059;-79
2022/01/11 08:26:28;;;;;;;2.33;1.00;;;;;;;11.36;100.00;101033.69;4952911;29;20078;-81
2022/01/11 08:29:32;;;;;;;3.55;0.85;;;;;;;11.37;100.00;101051.97;4953304;28;20054;-85
2022/01/11 08:32:35;;;;;;;0.30;0.30;;;;;;;11.37;100.00;101052.75;4941817;29;20051;-89
2022/01/11 08:35:39;;;;;;;0.95;0.90;;;;;;;11.34;100.00;101044.53;4938046;29;20051;-85
2022/01/11 08:38:42;;;;;;;11.80;1.75;;;;;;;11.37;100.00;101057.53;4951918;28;20050;-83
2022/01/11 08:41:46;;;;;;;0.88;0.75;;;;;;;11.37;100.00;101057.53;4938185;29;20060;-83
2022/01/11 08:44:49;;;;;;;0.98;0.55;;;;;;;11.34;100.00;101064.03;4952485;29;20058;-83
2022/01/11 08:47:53;;;;;;;0.73;0.32;;;;;;;11.41;100.00;101069.38;4944167;29;20059;-83
2022/01/11 08:50:56;;;;;;;1.00;0.63;;;;;;;11.45;100.00;101067.25;4940935;29;20058;-84
2022/01/11 08:54:00;;;;;;;6.80;1.02;;;;;;;11.50;100.00;101071.47;4949878;29;20071;-83
2022/01/11 08:57:04;;;;;;;7.90;0.73;;;;;;;11.46;100.00;101079.94;4941683;29;20054;-89
2022/01/11 09:00:16;;;;;;;3.38;1.13;;;;;;;11.44;100.00;101090.78;4948491;28;20055;-84
2022/01/11 09:03:23;;;;;;;0.35;0.30;;;;;;;11.50;100.00;101083.38;4944142;29;20058;-85
2022/01/11 09:06:26;;;;;;;0.60;0.50;;;;;;;11.48;100.00;101083.06;4945916;29;20074;-85
2022/01/11 09:09:32;;;;;;;2.17;0.73;;;;;;;11.47;100.00;101084.31;4940180;29;20066;-87
2022/01/11 09:12:35;;;;;;;3.40;0.88;;;;;;;11.45;100.00;101092.34;4956526;29;20059;-84
2022/01/11 09:15:39;;;;;;;3.13;0.77;;;;;;;11.43;100.00;101092.03;4941508;29;20078;-85
2022/01/11 09:18:42;;;;;;;1.35;0.88;;;;;;;11.37;100.00;101089.00;4956548;28;20433;-83
2022/01/11 09:21:45;;;;;;;0.40;0.40;;;;;;;11.36;100.00;101095.84;4938385;29;20074;-85
2022/01/11 09:24:49;;;;;;;7.18;1.33;;;;;;;11.34;100.00;101101.09;4938420;29;20059;-84
2022/01/11 09:27:53;;;;;;;0.73;0.70;;;;;;;11.33;100.00;101116.25;4943102;29;20051;-85
2022/01/11 09:30:56;;;;;;;0.20;0.20;;;;;;;11.30;100.00;101119.16;4943489;29;20505;-83
2022/01/11 09:34:00;;;;;;;1.27;0.35;;;;;;;11.34;100.00;101114.25;4930888;29;20050;-84
2022/01/11 09:37:04;;;;;;;0.30;0.30;;;;;;;11.33;100.00;101112.66;4956509;29;20058;-86
2022/01/11 09:40:10;;;;;;;1.15;0.28;;;;;;;11.31;100.00;101126.28;4956850;28;20066;-87
2022/01/11 09:43:14;;;;;;;2.92;1.15;;;;;;;11.23;100.00;101130.56;4952152;29;20058;-86
2022/01/11 09:46:17;;;;;;;1.17;0.85;;;;;;;11.27;100.00;101132.00;4944824;29;20047;-92
2022/01/11 09:49:21;;;;;;;4.63;0.90;;;;;;;11.31;100.00;101137.44;4950998;28;20441;-90
2022/01/11 09:52:27;;;;;;;3.13;0.82;;;;;;;11.31;100.00;101140.22;4945975;29;20054;-91
2022/01/11 09:55:30;;;;;;;0.88;0.45;;;;;;;11.34;100.00;101139.34;4956870;29;20166;-90
2022/01/11 09:58:35;;;;;;;1.25;0.75;;;;;;;11.34;100.00;101142.91;4943282;28;20070;-91
2022/01/11 10:01:38;;;;;;;0.68;0.50;;;;;;;11.37;100.00;101152.38;4959043;28;20054;-95
2022/01/11 10:04:44;;;;;;;8.77;1.08;;;;;;;11.42;100.00;101149.03;4957502;29;20046;-93
2022/01/11 10:07:47;;;;;;;2.67;0.65;;;;;;;11.41;100.00;101158.63;4955421;29;20054;-89
2022/01/11 10:10:52;;;;;;;1.67;0.60;;;;;;;11.42;100.00;101160.19;4956879;29;20062;-88
2022/01/11 10:13:55;;;;;;;0.50;0.50;;;;;;;11.43;100.00;101151.34;4957303;29;20058;-87
2022/01/11 10:17:10;;;;;;;1.75;0.77;;;;;;;11.43;100.00;101158.97;4938599;29;20513;-94
2022/01/11 10:20:20;;;;;;;1.83;1.42;;;;;;;11.42;100.00;101169.34;4953502;28;20054;-93
2022/01/11 10:23:33;;;;;;;0.95;0.52;;;;;;;11.41;100.00;101172.59;4956110;29;20050;-90
2022/01/11 10:26:44;;;;;;;0.10;0.10;;;;;;;11.43;100.00;101167.34;4945631;29;20055;-91
2022/01/11 10:29:53;;;;;;;1.85;0.60;;;;;;;11.49;100.00;101170.31;4963390;28;20057;-90
2022/01/11 10:33:04;;;;;;;0.30;0.25;;;;;;;11.52;100.00;101172.97;4957243;29;20054;-88
2022/01/11 10:36:07;;;;;;;0.10;0.10;;;;;;;11.59;100.00;101169.97;4942356;29;20048;-89
2022/01/11 10:39:29;;;;;;;3.85;0.20;;;;;;;11.67;100.00;101168.53;4944996;28;20127;-94
2022/01/11 10:42:38;;;;;;;0.25;0.20;;;;;;;11.79;100.00;101176.06;4956276;29;20066;-88
2022/01/11 10:45:48;;;;;;;2.85;0.63;;;;;;;11.92;100.00;101179.59;4959947;28;20066;-89
2022/01/11 10:48:51;;;;;;;3.22;1.20;;;;;;;12.02;100.00;101183.22;4945225;28;20509;-90
2022/01/11 10:52:19;;;;;;;5.55;0.65;;;;;;;12.07;100.00;101182.66;4944723;29;20058;-89
2022/01/11 10:55:24;;;;;;;5.95;1.40;;;;;;;12.10;100.00;101195.72;4956133;29;20055;-88
2022/01/11 10:58:32;;;;;;;0.57;0.57;;;;;;;12.09;100.00;101199.72;4956187;28;20058;-88
2022/01/11 11:01:38;;;;;;;0.28;0.28;;;;;;;12.11;100.00;101195.25;4956289;29;20058;-88
2022/01/11 11:04:41;;;;;;;2.35;0.63;;;;;;;12.11;100.00;101200.84;4943524;29;20504;-87
2022/01/11 11:08:03;;;;;;;2.15;0.90;;;;;;;12.10;100.00;101210.47;4956333;29;20074;-87
2022/01/11 11:11:12;;;;;;;1.88;1.10;;;;;;;12.12;100.00;101218.38;4946545;29;20131;-88
2022/01/11 11:14:15;;;;;;;0.10;0.10;;;;;;;12.05;100.00;101213.84;4939947;29;20055;-86
2022/01/11 11:17:30;;;;;;;2.30;0.30;;;;;;;11.99;100.00;101215.66;4975237;29;20040;-89
2022/01/11 11:20:36;;;;;;;6.97;1.13;;;;;;;11.97;100.00;101212.53;4980242;28;20049;-87
2022/01/11 11:23:40;;;;;;;0.80;0.38;;;;;;;12.11;100.00;101220.41;4975280;29;20053;-86
2022/01/11 11:26:48;;;;;;;3.38;1.50;;;;;;;12.17;100.00;101226.97;4977616;28;20061;-89
2022/01/11 11:29:52;;;;;;;0.85;0.43;;;;;;;12.29;100.00;101236.53;4958598;28;20050;-89
2022/01/11 11:32:57;;;;;;;0.63;0.47;;;;;;;12.26;100.00;101245.03;4937016;29;20058;-90
2022/01/11 11:36:00;;;;;;;3.33;0.75;;;;;;;12.23;100.00;101234.75;4937767;29;20074;-81
2022/01/11 11:39:19;;;;;;;1.50;0.20;;;;;;;12.20;100.00;101239.25;4955339;28;20131;-81
2022/01/11 11:42:24;;;;;;;2.63;0.28;;;;;;;12.24;100.00;101244.69;4941209;29;20058;-80
2022/01/11 11:45:34;;;;;;;0.80;0.20;;;;;;;12.17;100.00;101240.16;4953224;29;20066;-78
2022/01/11 11:48:37;;;;;;;0.68;0.55;;;;;;;12.10;100.00;101248.78;4941298;28;20058;-79
2022/01/11 11:51:42;;;;;;;0.80;0.30;;;;;;;12.06;100.00;101253.72;4952021;29;20062;-78
2022/01/11 11:54:51;;;;;;;4.10;1.85;;;;;;;12.09;100.00;101256.38;4952944;29;20059;-79
2022/01/11 11:57:56;;;;;;;0.50;0.50;;;;;;;12.16;100.00;101258.94;4941815;29;20058;-78
2022/01/11 12:00:59;;;;;;;0.47;0.28;;;;;;;12.15;100.00;101259.34;4938555;29;20406;-79
2022/01/11 12:04:02;;;;;;;12.00;1.98;;;;;;;12.25;100.00;101254.63;4952344;29;20054;-81
2022/01/11 12:07:31;;;;;;;0.47;0.47;;;;;;;12.31;100.00;101248.03;4939706;29;20470;-79
2022/01/11 12:10:50;;;;;;;0.40;0.25;;;;;;;12.29;100.00;101246.91;4951994;28;20054;-79
2022/01/11 12:13:57;;;;;;;7.50;0.63;;;;;;;12.33;100.00;101261.53;4940938;29;20070;-78
2022/01/11 12:17:16;;;;;;;1.55;0.68;;;;;;;12.24;100.00;101265.03;4940979;29;20050;-78
2022/01/11 12:20:50;;;;;;;0.35;0.30;;;;;;;12.23;100.00;101248.72;4963827;28;20132;-77
2022/01/11 12:23:56;;;;;;;3.40;1.20;;;;;;;12.16;100.00;101258.13;4952668;29;20050;-78
2022/01/11 12:27:00;;;;;;;0.70;0.32;;;;;;;12.14;100.00;101261.38;4952663;29;20039;-78
2022/01/11 12:30:08;;;;;;;0.77;0.30;;;;;;;12.06;100.00;101262.84;4939601;29;20058;-79
2022/01/11 12:33:21;;;;;;;2.53;0.77;;;;;;;12.10;100.00;101271.91;4927373;29;20412;-79
2022/01/11 12:36:53;;;;;;;0.88;0.80;;;;;;;12.21;100.00;101270.75;4952699;29;20418;-79
2022/01/11 12:40:19;;;;;;;0.90;0.40;;;;;;;12.24;100.00;101258.66;4951642;28;20073;-79
2022/01/11 12:43:42;;;;;;;0.70;0.38;;;;;;;12.21;100.00;101267.94;4951355;28;20398;-79
2022/01/11 12:46:56;;;;;;;0.52;0.32;;;;;;;12.19;100.00;101280.34;4951879;29;20048;-79
2022/01/11 12:50:14;;;;;;;0.20;0.20;;;;;;;12.19;100.00;101285.94;4952629;28;20648;-79
2022/01/11 12:53:19;;;;;;;3.42;0.30;;;;;;;12.08;100.00;101282.72;4952559;29;20058;-79
2022/01/11 12:56:22;;;;;;;3.03;0.50;;;;;;;11.99;100.00;101288.25;4949986;28;20046;-85
2022/01/11 12:59:32;;;;;;;0.10;0.10;;;;;;;11.87;100.00;101286.25;4934214;29;20055;-80
2022/01/11 13:02:37;;;;;;;1.40;0.55;;;;;;;11.79;100.00;101290.50;4952187;29;20062;-84
2022/01/11 13:05:42;;;;;;;9.50;0.90;;;;;;;11.76;100.00;101299.75;4949609;28;20057;-82
2022/01/11 13:08:50;;;;;;;0.75;0.45;;;;;;;11.74;100.00;101298.66;4952481;28;20071;-86
2022/01/11 13:39:41;;;;;;;1.00;0.75;;;;;;;11.63;100.00;101315.72;5151254;27;20373;-58
2022/01/11 13:42:46;;;;;;;5.18;1.25;;;;;;;11.63;100.00;101338.03;5151366;27;20046;-58
2022/01/11 13:45:50;;;;;;;2.10;1.67;;;;;;;11.67;100.00;101322.00;5151382;27;20045;-57
2022/01/11 13:48:56;;;;;;;4.25;1.17;;;;;;;11.77;100.00;101325.66;5130994;28;20051;-57
2022/01/11 13:52:03;;;;;;;2.72;0.40;;;;;;;11.80;100.00;101313.63;5133218;27;20489;-57
2022/01/11 13:55:07;;;;;;;1.00;0.52;;;;;;;11.79;100.00;101323.22;5150322;27;20046;-58
2022/01/11 13:58:11;;;;;;;3.63;1.65;;;;;;;11.86;100.00;101328.56;5134925;27;20108;-57
2022/01/11 14:01:16;;;;;;;0.30;0.30;;;;;;;11.97;100.00;101327.00;5137179;27;20076;-57
2022/01/11 14:04:21;;;;;;;6.32;0.65;;;;;;;12.01;100.00;101319.28;5135834;27;20050;-57
2022/01/11 14:07:29;;;;;;;0.40;0.38;;;;;;;12.00;100.00;101306.53;5145131;27;20045;-57
2022/01/11 14:10:37;;;;;;;3.15;1.27;;;;;;;11.98;100.00;101314.59;5143686;27;20050;-58
2022/01/11 14:13:41;;;;;;;7.07;1.27;;;;;;;11.89;100.00;101322.88;5130163;27;20109;-57
2022/01/11 14:16:45;;;;;;;18.73;1.08;;;;;;;11.78;100.00;101325.22;5141036;27;20062;-57
2022/01/11 14:19:54;;;;;;;1.10;0.75;;;;;;;11.67;100.00;101316.44;5147285;27;20046;-57
2022/01/11 14:23:17;;;;;;;2.15;0.68;;;;;;;11.67;100.00;101344.34;5140261;27;20046;-57
2022/01/11 14:26:32;;;;;;;0.57;0.50;;;;;;;11.60;100.00;101350.09;5132878;27;20046;-57
2022/01/11 14:29:35;;;;;;;14.15;1.42;;;;;;;11.49;100.00;101360.03;5149426;27;20050;-59
2022/01/11 14:32:51;;;;;;;2.38;0.75;;;;;;;11.33;100.00;101358.88;5138316;27;20039;-57
2022/01/11 14:35:56;;;;;;;0.45;0.43;;;;;;;11.26;100.00;101366.69;5142684;27;20062;-59
2022/01/11 14:39:16;;;;;;;6.05;1.90;;;;;;;11.20;100.00;101360.88;5134637;27;20043;-60
2022/01/11 14:42:30;;;;;;;2.70;1.63;;;;;;;11.16;100.00;101353.84;5136439;27;20116;-59
2022/01/11 14:45:39;;;;;;;1.27;0.80;;;;;;;11.08;100.00;101361.63;5128836;27;20046;-60
2022/01/11 14:48:45;;;;;;;1.25;0.30;;;;;;;11.07;100.00;101373.22;5115144;28;20057;-59